Keweenaw Bay, Michigan
Current Conditions -  °F | °C
As of 1:53 AM on Thursday 27 Nov 2014 (Local Time) from KCMX Reporting Station
Light Snow Light Snow  
Wind Chill: -3°   Ceiling: 1300
Heat Index: 11°   Visibility: 1.2mi
Dew Point:   Wind: 12mph
Humidity: 77%   Direction: 350°N
Pressure: 30.25"   Gusts: NA
Location:  46.811°N, 88.5098°W
Report Text: KCMX 270653Z AUTO 35010KT 1 1/4SM -SN BKN013 OVC019 M12/M15 A3025 RMK AO2 SLP268 P0000 T11171150
Loading
Personal Weather Stations






























Interactive Weather Map New forecast layout! Learn more

10-Day Weather Forecast

Advertisements
Track Severe Weather on mobile